M I D A S
Marine Information and Data Acquisition System
Tripno 676 of the Zeeleeuw from 2004-03-26 07:15:52 to 2004-03-26 16:29:29
Back to CruiseResearch ActivitiesStationsMapUnderway DataData graphs

EquipmentUnitsComment
TimeDGPSUTC
LatitudeDGPSDM.mWGS84
LongitudeDGPSDM.mWGS84
HeadingGyrodeg 
SOGDGPSknotsSpeed over ground
COGDGPSdegCourse over ground
DepthEcho soundermeters200 kHz
Missing or incorrect values are displayed as -999
Navigation data collected by the RV Zeeleeuw from 2004-03-26 07:15:52 to 2004-03-26 16:29:29
                                                                                    Next 1000 lines
Time Latitude Longitude Heading SOG COG Depth
2004-03-26 07:16:02 51°13.594 2°56.099 125.2 0.1 167 -999
2004-03-26 07:16:07 51°13.594 2°56.099 123.2 0.1 170 -999
2004-03-26 07:16:12 51°13.594 2°56.099 121.2 0.1 194 -999
2004-03-26 07:16:17 51°13.593 2°56.099 119 0.1 181 -999
2004-03-26 07:16:22 51°13.593 2°56.099 116.8 0.2 189 -999
2004-03-26 07:16:27 51°13.593 2°56.099 114.5 0.2 227 -999
2004-03-26 07:16:32 51°13.593 2°56.098 113 0.3 258 -999
2004-03-26 07:16:37 51°13.593 2°56.096 112.4 0.8 282 -999
2004-03-26 07:16:42 51°13.594 2°56.094 112.2 1.2 281 -999
2004-03-26 07:16:47 51°13.595 2°56.09 112.9 1.8 288 -999
2004-03-26 07:16:52 51°13.596 2°56.085 114 2.1 288 -999
2004-03-26 07:16:57 51°13.597 2°56.08 115.6 2.5 291 -999
2004-03-26 07:17:02 51°13.598 2°56.075 116.6 2.8 292 -999
2004-03-26 07:17:07 51°13.6 2°56.068 117.6 3.2 295 -999
2004-03-26 07:17:12 51°13.602 2°56.061 118.5 3.4 294 -999
2004-03-26 07:17:17 51°13.605 2°56.054 119.4 3.7 296 -999
2004-03-26 07:17:22 51°13.607 2°56.046 120.1 3.9 296 -999
2004-03-26 07:17:27 51°13.61 2°56.038 120.6 4.2 297 -999
2004-03-26 07:17:32 51°13.612 2°56.029 120.8 4.3 298 -999
2004-03-26 07:17:37 51°13.615 2°56.02 121 4.5 297 -999
2004-03-26 07:17:42 51°13.618 2°56.011 121 4.6 298 -999
2004-03-26 07:17:47 51°13.621 2°56.002 120.5 4.9 297 -999
2004-03-26 07:17:52 51°13.625 2°55.992 120.4 5 297 -999
2004-03-26 07:17:57 51°13.628 2°55.982 120.3 5.1 296 -999
2004-03-26 07:18:02 51°13.631 2°55.971 120.4 5.2 296 -999
2004-03-26 07:18:07 51°13.634 2°55.961 120.7 5.3 297 -999
2004-03-26 07:18:12 51°13.638 2°55.95 120.7 5.3 297 -999
2004-03-26 07:18:17 51°13.641 2°55.94 120.6 5.3 296 -999
2004-03-26 07:18:22 51°13.644 2°55.929 120.3 5.3 296 -999
2004-03-26 07:18:27 51°13.647 2°55.918 119.9 5.3 296 -999
2004-03-26 07:18:32 51°13.651 2°55.908 119.6 5.4 296 -999
2004-03-26 07:18:37 51°13.654 2°55.897 119.2 5.4 296 -999
2004-03-26 07:18:42 51°13.657 2°55.886 118.7 5.4 296 -999
2004-03-26 07:18:47 51°13.66 2°55.875 118.3 5.4 295 -999
2004-03-26 07:18:52 51°13.664 2°55.864 117.5 5.4 294 -999
2004-03-26 07:18:57 51°13.667 2°55.854 116.8 5.4 294 -999
2004-03-26 07:19:02 51°13.67 2°55.843 115.9 5.3 293 -999
2004-03-26 07:19:07 51°13.672 2°55.832 114.9 5.2 292 -999
2004-03-26 07:19:12 51°13.675 2°55.821 113.9 5.2 291 -999
2004-03-26 07:19:17 51°13.677 2°55.811 112.8 5.1 290 -999
2004-03-26 07:19:22 51°13.68 2°55.8 111.9 5 290 -999
2004-03-26 07:19:27 51°13.682 2°55.791 111.5 4.6 290 -999
2004-03-26 07:19:32 51°13.684 2°55.782 110.8 4.1 289 -999
2004-03-26 07:19:37 51°13.685 2°55.775 109.5 3.3 288 -999
2004-03-26 07:19:42 51°13.687 2°55.769 107.3 2.9 288 -999
2004-03-26 07:19:47 51°13.687 2°55.765 104.5 1.7 291 -999
2004-03-26 07:19:52 51°13.688 2°55.763 100.8 1.1 298 -999
2004-03-26 07:19:57 51°13.689 2°55.762 95.4 0.5 316 -999
2004-03-26 07:20:02 51°13.689 2°55.763 88.6 0.6 36 -999
2004-03-26 07:20:07 51°13.69 2°55.765 81 0.9 60 -999
2004-03-26 07:20:12 51°13.691 2°55.766 74.4 1 43 -999
2004-03-26 07:20:17 51°13.692 2°55.767 70.6 0.6 43 -999
2004-03-26 07:20:22 51°13.692 2°55.767 67.5 0.3 337 -999
2004-03-26 07:20:27 51°13.692 2°55.765 64.8 0.9 257 -999
2004-03-26 07:20:32 51°13.691 2°55.763 62.6 1.2 252 -999
2004-03-26 07:20:37 51°13.69 2°55.76 60.7 1.5 247 -999
2004-03-26 07:20:42 51°13.689 2°55.756 58.9 1.6 246 -999
2004-03-26 07:20:47 51°13.688 2°55.753 57.6 1.8 243 -999
2004-03-26 07:20:52 51°13.687 2°55.749 56.5 1.7 244 -999
2004-03-26 07:20:57 51°13.686 2°55.747 55.3 1.3 249 -999
2004-03-26 07:21:02 51°13.686 2°55.745 52.4 0.8 248 -999
2004-03-26 07:21:07 51°13.686 2°55.744 47.4 0.5 300 -999
2004-03-26 07:21:12 51°13.687 2°55.744 41.8 0.5 346 -999
2004-03-26 07:21:17 51°13.689 2°55.745 35.2 1.2 11 -999
2004-03-26 07:21:22 51°13.692 2°55.746 27.2 1.8 15 -999
2004-03-26 07:21:27 51°13.695 2°55.746 19.1 2.4 3 -999
2004-03-26 07:21:32 51°13.699 2°55.746 12 2.6 2 -999
2004-03-26 07:21:37 51°13.703 2°55.745 5.3 3.1 353 -999
2004-03-26 07:21:42 51°13.707 2°55.744 358.4 3.4 349 -999
2004-03-26 07:21:47 51°13.713 2°55.742 351.4 3.8 341 -999
2004-03-26 07:21:52 51°13.718 2°55.738 344.5 4 338 -999
2004-03-26 07:21:57 51°13.722 2°55.734 338 3.9 331 -999
2004-03-26 07:22:02 51°13.727 2°55.729 334 3.8 330 -999
2004-03-26 07:22:07 51°13.731 2°55.725 332 3.3 328 -999
2004-03-26 07:22:12 51°13.736 2°55.72 331.3 4 328 -999
2004-03-26 07:22:17 51°13.739 2°55.713 332.4 4.3 328 -999
2004-03-26 07:22:22 51°13.745 2°55.708 333.3 4.5 330 -999
2004-03-26 07:22:27 51°13.75 2°55.702 333.8 4 330 -999
2004-03-26 07:22:39 51°13.764 2°55.686 335 0.2 150 9.4
2004-03-26 07:22:41 51°13.766 2°55.683 335.3 4.8 332 9.4
2004-03-26 07:22:47 51°13.776 2°55.676 335.8 4.8 332 9.4
2004-03-26 07:22:51 51°13.783 2°55.671 337 6.2 333 9.4
2004-03-26 07:22:57 51°13.793 2°55.663 337.1 6.4 331 9.4
2004-03-26 07:23:01 51°13.799 2°55.658 337.1 6.6 333 9.7
2004-03-26 07:23:07 51°13.809 2°55.65 337.5 6.7 333 9.8
2004-03-26 07:23:11 51°13.816 2°55.645 337.9 6.9 334 9.8
2004-03-26 07:23:17 51°13.827 2°55.637 338.5 7 333 9.8
2004-03-26 07:23:21 51°13.834 2°55.632 339.3 7.1 335 9.8
2004-03-26 07:23:27 51°13.845 2°55.624 339.9 7.1 335 9.6
2004-03-26 07:23:32 51°13.855 2°55.617 340.5 7.3 336 9.5
2004-03-26 07:23:36 51°13.863 2°55.612 340.7 7.3 335 9.8
2004-03-26 07:23:41 51°13.872 2°55.605 340.5 7.4 335 9.8
2004-03-26 07:23:45 51°13.88 2°55.6 340.3 7.5 334 9.4
2004-03-26 07:23:51 51°13.891 2°55.591 340.1 7.5 335 9.5
2004-03-26 07:23:57 51°13.902 2°55.582 340.4 7.6 335 9.6
2004-03-26 07:24:01 51°13.91 2°55.576 340.5 7.7 334 9.5
2004-03-26 07:24:07 51°13.921 2°55.568 340.6 7.7 335 9.6
2004-03-26 07:24:11 51°13.929 2°55.562 341 7.7 335 9.6
2004-03-26 07:24:17 51°13.941 2°55.554 341 7.7 335 9.4
2004-03-26 07:24:21 51°13.949 2°55.548 341.1 7.8 336 9.7
2004-03-26 07:24:27 51°13.961 2°55.54 341.2 7.8 336 10
2004-03-26 07:24:31 51°13.97 2°55.534 341.4 7.8 336 10
2004-03-26 07:24:37 51°13.982 2°55.526 341.3 7.9 336 9.9
2004-03-26 07:24:41 51°13.99 2°55.521 341.2 7.9 336 9.6
2004-03-26 07:24:47 51°14.002 2°55.512 341.4 7.9 336 10
2004-03-26 07:24:52 51°14.012 2°55.505 341.5 7.9 336 10
2004-03-26 07:24:57 51°14.022 2°55.498 341.2 7.9 335 10.2
2004-03-26 07:25:01 51°14.03 2°55.492 340.9 7.9 336 10.4
2004-03-26 07:25:07 51°14.042 2°55.483 341.1 7.9 336 10.6
2004-03-26 07:25:12 51°14.052 2°55.476 341.8 7.9 337 10.7
2004-03-26 07:25:17 51°14.062 2°55.469 342.1 7.9 336 10.7
2004-03-26 07:25:21 51°14.07 2°55.463 341.7 8 335 10.8
2004-03-26 07:25:27 51°14.082 2°55.454 341.1 8 335 10.9
2004-03-26 07:25:32 51°14.093 2°55.445 340.8 8.6 335 10.9
2004-03-26 07:25:37 51°14.104 2°55.437 340.8 8.9 335 10.8
2004-03-26 07:25:41 51°14.113 2°55.43 340.9 9.1 335 10.8
2004-03-26 07:25:47 51°14.127 2°55.419 340.8 9.3 334 10.7
2004-03-26 07:25:51 51°14.137 2°55.411 339.6 9.7 332 10.8
2004-03-26 07:25:55 51°14.147 2°55.403 338.6 9.8 331 10.7
2004-03-26 07:26:01 51°14.161 2°55.39 337 9.9 331 10.7
2004-03-26 07:26:07 51°14.176 2°55.376 335.3 9.9 331 10.7
2004-03-26 07:26:12 51°14.187 2°55.363 333.7 10.2 327 10.6
2004-03-26 07:26:17 51°14.199 2°55.35 332.8 10.2 326 10.6
2004-03-26 07:26:21 51°14.208 2°55.339 330.9 10.2 326 10.6
2004-03-26 07:26:27 51°14.222 2°55.322 328.1 10.4 321 10.5
2004-03-26 07:26:31 51°14.231 2°55.31 325.9 10.5 319 10.6
2004-03-26 07:26:37 51°14.243 2°55.291 324.3 10.5 317 10.6
2004-03-26 07:26:41 51°14.251 2°55.277 322.5 10.6 314 10.5
2004-03-26 07:26:45 51°14.259 2°55.263 319.7 10.6 313 10.5
2004-03-26 07:26:52 51°14.273 2°55.238 318.3 10.8 312 10.6
2004-03-26 07:26:55 51°14.279 2°55.227 316.8 10.8 309 10.4
2004-03-26 07:27:01 51°14.29 2°55.205 314.7 10.8 309 10.5
2004-03-26 07:27:07 51°14.301 2°55.181 313.7 10.8 309 10.5
2004-03-26 07:27:12 51°14.31 2°55.161 312.6 11.1 305 10.6
2004-03-26 07:27:16 51°14.316 2°55.144 310.6 11.1 304 10.5
2004-03-26 07:27:21 51°14.325 2°55.123 309.2 11.4 303 10.4
2004-03-26 07:27:27 51°14.335 2°55.097 308.2 11.4 302 10.4
2004-03-26 07:27:32 51°14.343 2°55.076 307.7 11.6 302 10.4
2004-03-26 07:27:36 51°14.35 2°55.058 307 11.7 301 10.5
2004-03-26 07:27:41 51°14.358 2°55.035 306.6 11.7 300 10.5
2004-03-26 07:27:47 51°14.367 2°55.008 305.9 11.8 299 10
2004-03-26 07:27:51 51°14.373 2°54.989 304.7 11.8 298 10
2004-03-26 07:27:57 51°14.382 2°54.96 303.7 12 296 10
2004-03-26 07:28:01 51°14.388 2°54.941 303.3 12.3 298 10
2004-03-26 07:28:07 51°14.399 2°54.912 305 12.4 301 10.2
2004-03-26 07:28:11 51°14.406 2°54.894 308.7 12.5 305 10.2
2004-03-26 07:28:16 51°14.417 2°54.873 312.9 12.5 309 10.3
2004-03-26 07:28:21 51°14.429 2°54.853 319.3 12.4 313 10.5
2004-03-26 07:28:27 51°14.445 2°54.831 323.4 12.5 316 10.4
2004-03-26 07:28:31 51°14.457 2°54.818 328.3 12.7 324 10.2
2004-03-26 07:28:37 51°14.475 2°54.8 333.1 12.7 328 10.4
2004-03-26 07:28:41 51°14.487 2°54.79 339.4 12.8 332 10.4
2004-03-26 07:28:46 51°14.504 2°54.779 343.5 12.8 336 9.9
2004-03-26 07:28:51 51°14.521 2°54.768 346.2 13 338 9.9
2004-03-26 07:28:57 51°14.541 2°54.756 347.6 13.1 339 9.8
2004-03-26 07:29:01 51°14.555 2°54.747 348.7 13.1 340 9.8
2004-03-26 07:29:07 51°14.575 2°54.735 349.4 13.1 340 9.6
2004-03-26 07:29:12 51°14.592 2°54.725 349.3 13.3 339 9.3
2004-03-26 07:29:17 51°14.61 2°54.715 349.4 13.3 341 9.5
2004-03-26 07:29:21 51°14.624 2°54.708 350.7 13.2 342 9.3
2004-03-26 07:29:27 51°14.645 2°54.698 351.7 13.2 342 9.3
2004-03-26 07:29:31 51°14.659 2°54.691 352.7 13.2 344 9.1
2004-03-26 07:29:36 51°14.677 2°54.683 353.7 13.2 344 9.2
2004-03-26 07:29:41 51°14.694 2°54.675 354.2 13.2 345 9.3
2004-03-26 07:29:47 51°14.716 2°54.666 354.9 13.3 345 9.3
2004-03-26 07:29:51 51°14.73 2°54.66 355 13.3 345 9.2
2004-03-26 07:29:55 51°14.744 2°54.654 355 13.4 345 9.2
2004-03-26 07:30:01 51°14.766 2°54.644 354.7 13.4 345 9
2004-03-26 07:30:07 51°14.787 2°54.635 354.6 13.4 345 9
2004-03-26 07:30:11 51°14.801 2°54.628 354.4 13.4 344 9
2004-03-26 07:30:16 51°14.819 2°54.62 354.1 13.4 344 8.9
2004-03-26 07:30:21 51°14.837 2°54.612 354.1 13.4 345 8.8
2004-03-26 07:30:27 51°14.859 2°54.603 354.3 13.3 346 8.9
2004-03-26 07:30:31 51°14.873 2°54.598 355.5 13.3 346 9
2004-03-26 07:30:37 51°14.895 2°54.591 356.6 13.4 348 8.9
2004-03-26 07:30:41 51°14.909 2°54.586 357.6 13.3 348 8.7
2004-03-26 07:30:47 51°14.931 2°54.579 358.5 13.3 349 8.7
2004-03-26 07:30:52 51°14.949 2°54.574 359 13.3 349 8.6
2004-03-26 07:30:56 51°14.964 2°54.57 359.3 13.3 350 8.3
2004-03-26 07:31:01 51°14.982 2°54.565 359.7 13.2 350 8.5
2004-03-26 07:31:07 51°15.004 2°54.559 359.8 13.2 350 8.4
2004-03-26 07:31:11 51°15.018 2°54.555 359.9 13.1 350 8.1
2004-03-26 07:31:16 51°15.036 2°54.55 359.7 13 349 8
2004-03-26 07:31:21 51°15.053 2°54.544 359.2 12.9 349 7.8
2004-03-26 07:31:27 51°15.074 2°54.537 358.5 12.9 348 7.9
2004-03-26 07:31:32 51°15.092 2°54.531 358 12.9 348 7.8
2004-03-26 07:31:37 51°15.109 2°54.524 357.5 12.9 348 7.7
2004-03-26 07:31:41 51°15.123 2°54.519 356.7 13 346 8
2004-03-26 07:31:47 51°15.144 2°54.51 356 13 346 7.9
2004-03-26 07:31:51 51°15.158 2°54.504 355.3 13.1 345 8
2004-03-26 07:31:55 51°15.172 2°54.498 354.8 13.1 345 8
2004-03-26 07:32:01 51°15.194 2°54.489 354.4 13.1 345 8.2
2004-03-26 07:32:07 51°15.215 2°54.48 354.4 13.2 345 8.3
2004-03-26 07:32:11 51°15.229 2°54.475 355.4 13.3 347 8.3
2004-03-26 07:32:16 51°15.247 2°54.468 356.3 13.3 348 8.4
2004-03-26 07:32:21 51°15.265 2°54.463 357.7 13.3 350 8.3
2004-03-26 07:32:27 51°15.287 2°54.457 359 13.3 350 8.4
2004-03-26 07:32:31 51°15.302 2°54.454 0.3 13.3 351 8.5
2004-03-26 07:32:36 51°15.32 2°54.449 0.7 13.3 351 8.4
2004-03-26 07:32:42 51°15.342 2°54.444 1.3 13.3 351 8.5
2004-03-26 07:32:45 51°15.353 2°54.441 1.4 13.3 351 8.6
2004-03-26 07:32:52 51°15.379 2°54.435 1.4 13.4 351 8.7
2004-03-26 07:32:56 51°15.393 2°54.431 1 13.5 350 8.7
2004-03-26 07:33:01 51°15.412 2°54.425 0.2 13.4 350 8.6
2004-03-26 07:33:07 51°15.434 2°54.419   13.5 350 8.8
2004-03-26 07:33:12 51°15.452 2°54.413 359.6 13.5 349 8.8
2004-03-26 07:33:17 51°15.471 2°54.407 359.2 13.5 349 8.9
2004-03-26 07:33:21 51°15.486 2°54.402 358.7 13.5 348 8.9
2004-03-26 07:33:25 51°15.5 2°54.398 358.6 13.6 348 9
2004-03-26 07:33:32 51°15.526 2°54.389 358.4 13.6 349 9.1
2004-03-26 07:33:37 51°15.544 2°54.384 358.4 13.6 349 9.1
2004-03-26 07:33:41 51°15.559 2°54.379 358.8 13.6 350 9.2
2004-03-26 07:33:47 51°15.581 2°54.374 359.6 13.6 350 9.2
2004-03-26 07:33:51 51°15.596 2°54.37 0.5 13.6 351 9.3
2004-03-26 07:33:57 51°15.618 2°54.366 1.7 13.5 353 9.2
2004-03-26 07:34:01 51°15.633 2°54.363 2.6 13.5 354 9.4
2004-03-26 07:34:07 51°15.656 2°54.359 3.4 13.5 354 9.5
2004-03-26 07:34:12 51°15.675 2°54.356 4 13.5 354 9.6
2004-03-26 07:34:17 51°15.693 2°54.353 4.3 13.5 354 9.5
2004-03-26 07:34:21 51°15.708 2°54.35 4.3 13.5 354 9.7
2004-03-26 07:34:27 51°15.73 2°54.346 4.1 13.6 354 9.8
2004-03-26 07:34:31 51°15.745 2°54.343 3.5 13.6 353 9.9
2004-03-26 07:34:35 51°15.76 2°54.34 3 13.6 353 9.9
2004-03-26 07:34:41 51°15.783 2°54.335 2.8 13.5 353 10
2004-03-26 07:34:47 51°15.805 2°54.331 2.7 13.6 353 10.1
2004-03-26 07:34:51 51°15.82 2°54.328 2.9 13.6 353 10.1
2004-03-26 07:34:57 51°15.842 2°54.324 3.1 13.6 354 10.1
2004-03-26 07:35:02 51°15.861 2°54.321 3.6 13.5 355 10.2
2004-03-26 07:35:07 51°15.88 2°54.319 4.3 13.6 355 10.3
2004-03-26 07:35:11 51°15.895 2°54.317 5 13.5 355 10.3
2004-03-26 07:35:17 51°15.917 2°54.314 5.2 13.5 355 10.4
2004-03-26 07:35:21 51°15.932 2°54.312 5.2 13.5 355 10.5
2004-03-26 07:35:27 51°15.954 2°54.308 5 13.5 355 10.6
2004-03-26 07:35:31 51°15.969 2°54.306 4.7 13.5 354 10.5
2004-03-26 07:35:37 51°15.991 2°54.303 4.9 13.5 355 10.6
2004-03-26 07:35:41 51°16.006 2°54.3 5 13.4 354 10.7
2004-03-26 07:35:47 51°16.029 2°54.297 5 13.5 354 10.7
2004-03-26 07:35:51 51°16.043 2°54.294 5 13.4 354 10.7
2004-03-26 07:35:57 51°16.065 2°54.291 5 13 354 10.7
2004-03-26 07:36:01 51°16.078 2°54.288 4.7 12.4 354 10.8
2004-03-26 07:36:07 51°16.098 2°54.285 4.6 12.3 354 10.9
2004-03-26 07:36:11 51°16.111 2°54.283 4.8 11.7 354 10.9
2004-03-26 07:36:17 51°16.129 2°54.28 5.2 11 354 11
2004-03-26 07:36:21 51°16.141 2°54.278 5.5 10.3 354 11.1
2004-03-26 07:36:27 51°16.157 2°54.275 5.8 10.2 355 11.1
2004-03-26 07:36:31 51°16.168 2°54.274 6.1 9.5 354 11.2
2004-03-26 07:36:37 51°16.182 2°54.272 6.1 8.9 355 11.4
2004-03-26 07:36:41 51°16.192 2°54.27 6.6 8.2 355 11.2
2004-03-26 07:36:47 51°16.204 2°54.269 7.6 8 356 11.2
2004-03-26 07:36:51 51°16.212 2°54.269 9.4 7.3 357 11.2
2004-03-26 07:36:57 51°16.223 2°54.269 12.3 6.6 2 11.4
2004-03-26 07:37:01 51°16.23 2°54.27 15.5 5.9 5 11.4
2004-03-26 07:37:07 51°16.239 2°54.272 18.8 5.4 6 11.5
2004-03-26 07:37:12 51°16.245 2°54.273 22 4.4 8 11.3
2004-03-26 07:37:16 51°16.249 2°54.274 23.7 3.9 9 11.4
2004-03-26 07:37:21 51°16.253 2°54.276 26.1 3 11 11.4
2004-03-26 07:37:27 51°16.257 2°54.277 30.1 2.5 12 11.3
2004-03-26 07:37:31 51°16.259 2°54.278 35.5 1.7 14 11.2
2004-03-26 07:37:36 51°16.26 2°54.279 40.2 1.4 15 11.3
2004-03-26 07:37:41 51°16.262 2°54.28 44.8 1.2 20 11.4
2004-03-26 07:37:47 51°16.264 2°54.281 49 1.1 26 11.4
2004-03-26 07:37:51 51°16.264 2°54.281 52.8 0.9 35 11.3
2004-03-26 07:37:57 51°16.266 2°54.283 56.4 0.8 31 11.4
2004-03-26 07:38:01 51°16.266 2°54.284 59.2 0.8 35 11.4
2004-03-26 07:38:07 51°16.267 2°54.285 61 0.7 46 11.3
2004-03-26 07:38:11 51°16.267 2°54.285 64.3 0.6 60 11.4
2004-03-26 07:38:16 51°16.268 2°54.287 66.2 0.5 62 11.5
2004-03-26 07:38:21 51°16.268 2°54.288 68.1 0.5 64 11.5
2004-03-26 07:38:27 51°16.268 2°54.289 69.7 0.4 90 11.4
2004-03-26 07:38:32 51°16.268 2°54.29 71.8 0.3 85 11.5
2004-03-26 07:38:36 51°16.268 2°54.29 73.7 0.4 122 11.4
2004-03-26 07:38:41 51°16.267 2°54.291 75.7 0.3 110 11.4
2004-03-26 07:38:47 51°16.267 2°54.292 77.6 0.4 119 11.4
2004-03-26 07:38:51 51°16.267 2°54.292 79.1 0.4 137 11.3
2004-03-26 07:38:57 51°16.266 2°54.293 81 0.5 155 11.5
2004-03-26 07:39:01 51°16.265 2°54.293 82.5 0.7 157 11.4
2004-03-26 07:39:07 51°16.265 2°54.294 84.1 0.5 161 11.3
2004-03-26 07:39:11 51°16.264 2°54.294 85.5 0.6 169 11.4
2004-03-26 07:39:17 51°16.263 2°54.294 86.9 0.5 169 11.4
2004-03-26 07:39:21 51°16.262 2°54.294 87.8 0.7 172 11.4
2004-03-26 07:39:27 51°16.262 2°54.295 88.9 0.5 170 11.5
2004-03-26 07:39:31 51°16.261 2°54.295 89.4 0.6 173 11.5
2004-03-26 07:39:37 51°16.26 2°54.295 90.6 0.5 156 11.4
2004-03-26 07:39:41 51°16.259 2°54.296 91.2 0.7 159 11.5
2004-03-26 07:39:47 51°16.258 2°54.296 91.5 0.8 163 11.3
2004-03-26 07:39:51 51°16.257 2°54.297 91.9 0.9 155 11.3
2004-03-26 07:39:56 51°16.256 2°54.298 92.7 0.8 145 11.4
2004-03-26 07:40:01 51°16.255 2°54.299 92.7 1 148 11.3
2004-03-26 07:40:07 51°16.254 2°54.301 92.7 0.9 132 11.4
2004-03-26 07:40:12 51°16.253 2°54.303 92.8 1.4 120 11.5
2004-03-26 07:40:17 51°16.252 2°54.307 92.9 1.7 112 11.3
2004-03-26 07:40:21 51°16.251 2°54.311 92.9 2.3 104 11.3
2004-03-26 07:40:27 51°16.25 2°54.318 92.1 2.4 104 11.4
2004-03-26 07:40:31 51°16.25 2°54.322 91.9 2.5 101 11.4
2004-03-26 07:40:36 51°16.249 2°54.327 91.2 2.5 100 11.3
2004-03-26 07:40:41 51°16.249 2°54.333 90.8 2.6 99 11.3
2004-03-26 07:40:47 51°16.248 2°54.34 90.3 2.6 95 11.3
2004-03-26 07:40:52 51°16.248 2°54.346 89.7 2.7 96 11.2
2004-03-26 07:40:57 51°16.248 2°54.352 89.4 2.7 96 11.3
2004-03-26 07:41:01 51°16.248 2°54.357 88.7 2.7 93 11.2
2004-03-26 07:41:07 51°16.247 2°54.364 88.5 2.6 95 11.2
2004-03-26 07:41:12 51°16.247 2°54.37 88 2.7 96 11.3
2004-03-26 07:41:16 51°16.247 2°54.374 88.1 2.7 92 11.3
2004-03-26 07:41:21 51°16.246 2°54.38 87.9 2.7 98 11.3
2004-03-26 07:41:27 51°16.246 2°54.387 88.2 2.5 92 11.2
2004-03-26 07:41:31 51°16.246 2°54.391 88.4 2.4 94 11.2
2004-03-26 07:41:36 51°16.245 2°54.396 88.3 2.3 97 11.2
2004-03-26 07:41:41 51°16.245 2°54.401 88.5 2.2 97 11.1
2004-03-26 07:41:47 51°16.245 2°54.407 88.3 2.2 97 11.2
2004-03-26 07:41:51 51°16.244 2°54.41 88.1 2.1 103 11.2
2004-03-26 07:41:57 51°16.244 2°54.415 87.8 1.9 94 11.1
2004-03-26 07:42:01 51°16.243 2°54.418 87.7 1.8 101 11.2
2004-03-26 07:42:07 51°16.243 2°54.423 87.5 1.7 98 11.2
2004-03-26 07:42:11 51°16.242 2°54.426 87.2 1.6 102 11.2
2004-03-26 07:42:16 51°16.242 2°54.429 87.3 1.5 98 11.2
2004-03-26 07:42:21 51°16.241 2°54.432 87 1.7 110 11.3
2004-03-26 07:42:27 51°16.241 2°54.437 86.8 1.7 97 11.2
2004-03-26 07:42:31 51°16.241 2°54.441 86.9 2.1 96 11.2
2004-03-26 07:42:36 51°16.24 2°54.445 86.7 2.2 94 11.3
2004-03-26 07:42:41 51°16.24 2°54.45 86.8 2.3 96 11.1
2004-03-26 07:42:47 51°16.24 2°54.456 86.6 2.3 92 11.1
2004-03-26 07:42:52 51°16.24 2°54.462 86.5 2.4 94 11.1
2004-03-26 07:42:57 51°16.239 2°54.467 86.5 2.5 92 11.1
2004-03-26 07:43:01 51°16.239 2°54.472 86.5 2.6 92 11.1
2004-03-26 07:43:07 51°16.239 2°54.479 86.3 2.7 92 11.1
2004-03-26 07:43:11 51°16.239 2°54.483 86.6 2.7 91 11
2004-03-26 07:43:17 51°16.239 2°54.491 86.5 2.7 95 11.1
2004-03-26 07:43:21 51°16.238 2°54.495 86.9 2.7 93 11.1
2004-03-26 07:43:27 51°16.238 2°54.503 87.2 2.8 94 11
2004-03-26 07:43:31 51°16.238 2°54.508 87.4 2.8 90 11.1
2004-03-26 07:43:36 51°16.237 2°54.514 87.3 2.8 97 11.1
2004-03-26 07:43:42 51°16.237 2°54.521 87.6 2.8 91 11
2004-03-26 07:43:47 51°16.237 2°54.528 88 2.9 98 11
2004-03-26 07:43:52 51°16.236 2°54.534 88.5 2.8 97 11
2004-03-26 07:43:57 51°16.236 2°54.54 88.8 2.8 97 10.9
2004-03-26 07:44:01 51°16.235 2°54.545 89.3 2.8 98 11
2004-03-26 07:44:07 51°16.235 2°54.552 89.6 2.8 96 10.9
2004-03-26 07:44:12 51°16.234 2°54.558 90 2.8 95 11.1
2004-03-26 07:44:17 51°16.233 2°54.564 90.3 2.8 103 11
2004-03-26 07:44:21 51°16.233 2°54.569 90.8 2.7 94 10.8
2004-03-26 07:44:27 51°16.232 2°54.576 90.7 2.8 104 10.9
2004-03-26 07:44:31 51°16.232 2°54.581 91.6 2.8 100 10.9
2004-03-26 07:44:36 51°16.231 2°54.587 92.1 2.8 102 11
2004-03-26 07:44:41 51°16.23 2°54.593 91.9 2.7 101 11
2004-03-26 07:44:47 51°16.229 2°54.6 92 2.7 101 10.9
2004-03-26 07:44:51 51°16.229 2°54.605 91.6 2.7 100 10.9
2004-03-26 07:44:56 51°16.228 2°54.61 91.3 2.7 99 11
2004-03-26 07:45:01 51°16.227 2°54.616 90.8 2.6 99 10.9
2004-03-26 07:45:06 51°16.227 2°54.622 90.7 2.6 99 11.1
2004-03-26 07:45:12 51°16.226 2°54.629 90.5 2.6 103 11
2004-03-26 07:45:16 51°16.226 2°54.633 90.2 2.5 97 10.8
2004-03-26 07:45:21 51°16.225 2°54.639 90 2.7 102 10.8
2004-03-26 07:45:27 51°16.224 2°54.645 89.7 2.5 96 10.8
2004-03-26 07:45:32 51°16.224 2°54.651 89.3 2.6 103 10.8
2004-03-26 07:45:36 51°16.223 2°54.655 89.5 2.5 99 10.7
2004-03-26 07:45:41 51°16.223 2°54.661 89.2 2.5 99 10.7
2004-03-26 07:45:47 51°16.222 2°54.667 89.2 2.5 100 10.8
2004-03-26 07:45:51 51°16.221 2°54.672 89 2.5 99 10.8
2004-03-26 07:45:57 51°16.221 2°54.678 88.6 2.4 97 10.7
2004-03-26 07:46:01 51°16.221 2°54.682 88.2 2.4 95 10.8
2004-03-26 07:46:07 51°16.22 2°54.688 87.8 2.4 95 10.8
2004-03-26 07:46:11 51°16.22 2°54.693 87.4 2.4 95 10.8
2004-03-26 07:46:16 51°16.22 2°54.698 86.7 2.3 96 10.7
2004-03-26 07:46:21 51°16.219 2°54.703 86.1 2.3 91 10.9
2004-03-26 07:46:27 51°16.219 2°54.709 85.6 2.3 96 10.7
2004-03-26 07:46:32 51°16.219 2°54.714 85.6 2.3 95 10.7
2004-03-26 07:46:37 51°16.218 2°54.719 85.4 2.3 97 10.7
2004-03-26 07:46:41 51°16.218 2°54.723 85 2.3 93 10.7
2004-03-26 07:46:47 51°16.218 2°54.729 85 2.3 93 10.7
2004-03-26 07:46:51 51°16.218 2°54.733 84.5 2.2 91 10.7
2004-03-26 07:46:57 51°16.218 2°54.74 83.9 2.3 92 10.7
2004-03-26 07:47:01 51°16.218 2°54.744 83.8 2.3 91 10.7
2004-03-26 07:47:07 51°16.218 2°54.75 83.7 2.4 90 10.6
2004-03-26 07:47:12 51°16.218 2°54.755 83.5 2.3 88 10.7
2004-03-26 07:47:16 51°16.218 2°54.759 83.5 2.4 88 10.8
2004-03-26 07:47:21 51°16.218 2°54.765 83.3 2.4 94 10.7
2004-03-26 07:47:27 51°16.218 2°54.771 83.8 2.4 90 10.7
2004-03-26 07:47:31 51°16.217 2°54.775 84 2.5 94 10.7
2004-03-26 07:47:36 51°16.217 2°54.781 84.1 2.5 93 10.7
2004-03-26 07:47:41 51°16.217 2°54.786 84.6 2.5 88 10.7
2004-03-26 07:47:47 51°16.217 2°54.793 84.2 2.5 85 10.8
2004-03-26 07:47:51 51°16.217 2°54.797 84.4 2.6 96 10.8
2004-03-26 07:47:57 51°16.217 2°54.804 84.9 2.5 92 10.6
2004-03-26 07:48:01 51°16.216 2°54.808 85 2.6 94 10.7
2004-03-26 07:48:07 51°16.216 2°54.815 85.2 2.5 95 10.7
2004-03-26 07:48:11 51°16.216 2°54.819 85.3 2.5 91 10.7
2004-03-26 07:48:17 51°16.216 2°54.826 85.3 2.6 93 10.7
2004-03-26 07:48:21 51°16.216 2°54.831 85.4 2.5 93 10.7
2004-03-26 07:48:27 51°16.215 2°54.837 85.4 2.6 96 10.7
2004-03-26 07:48:31 51°16.216 2°54.842 85.4 2.6 92 10.6
2004-03-26 07:48:37 51°16.215 2°54.849 85.6 2.6 95 10.7
2004-03-26 07:48:41 51°16.215 2°54.853 85.6 2.6 91 10.7
2004-03-26 07:48:47 51°16.215 2°54.86 85.9 2.6 97 10.6
2004-03-26 07:48:52 51°16.215 2°54.866 86.2 2.6 97 10.6
2004-03-26 07:48:57 51°16.214 2°54.871 86.7 2.6 95 10.6
2004-03-26 07:49:01 51°16.214 2°54.876 87 2.6 99 10.6
2004-03-26 07:49:07 51°16.213 2°54.883 87.5 2.6 95 10.5
2004-03-26 07:49:11 51°16.213 2°54.887 87.7 2.6 94 10.7
2004-03-26 07:49:17 51°16.212 2°54.894 88.1 2.6 97 10.7
2004-03-26 07:49:21 51°16.212 2°54.899 88.5 2.6 99 10.7
2004-03-26 07:49:27 51°16.211 2°54.906 88.4 2.5 98 10.7
2004-03-26 07:49:32 51°16.211 2°54.911 88.9 2.6 97 10.5
2004-03-26 07:49:37 51°16.21 2°54.917 89.1 2.6 100 10.4
2004-03-26 07:49:41 51°16.21 2°54.921 89.2 2.5 96 10.5
2004-03-26 07:49:47 51°16.209 2°54.928 89.8 2.6 100 10.4
2004-03-26 07:49:51 51°16.209 2°54.933 89.7 2.6 101 10.4
2004-03-26 07:49:57 51°16.208 2°54.94 90.2 2.6 98 10.3
2004-03-26 07:50:01 51°16.208 2°54.944 90 2.6 94 10.4
2004-03-26 07:50:07 51°16.207 2°54.951 90 2.6 98 10.5
2004-03-26 07:50:11 51°16.207 2°54.956 89.9 2.7 96 10.4
2004-03-26 07:50:17 51°16.206 2°54.963 89.3 2.7 100 10.4
2004-03-26 07:50:21 51°16.205 2°54.968 89.6 2.7 98 10.4
2004-03-26 07:50:27 51°16.205 2°54.975 89.4 2.7 97 10.4
2004-03-26 07:50:31 51°16.204 2°54.98 89.5 2.7 95 10.4
2004-03-26 07:50:37 51°16.204 2°54.987 89.5 2.7 100 10.5
2004-03-26 07:50:41 51°16.203 2°54.992 89.6 2.6 96 10.4
2004-03-26 07:50:47 51°16.203 2°54.999 89.6 2.7 99 10.5
2004-03-26 07:50:51 51°16.202 2°55.003 89.4 2.7 100 10.4
2004-03-26 07:50:57 51°16.201 2°55.01 89.7 2.7 97 10.4
2004-03-26 07:51:01 51°16.201 2°55.015 89.6 2.7 100 10.3
2004-03-26 07:51:07 51°16.2 2°55.022 89.7 2.7 99 10.4
2004-03-26 07:51:11 51°16.2 2°55.027 89.6 2.7 101 10.3
2004-03-26 07:51:17 51°16.199 2°55.034 89.5 2.6 95 10.3
2004-03-26 07:51:21 51°16.199 2°55.038 89.2 2.7 100 10.4
2004-03-26 07:51:27 51°16.198 2°55.045 88.8 2.6 96 10.4
2004-03-26 07:51:32 51°16.198 2°55.051 88.7 2.6 95 10.4
2004-03-26 07:51:37 51°16.197 2°55.057 88 2.6 99 10.3
2004-03-26 07:51:41 51°16.197 2°55.061 88 2.6 96 10.2
2004-03-26 07:51:47 51°16.196 2°55.068 88 2.6 96 10.2
2004-03-26 07:51:51 51°16.196 2°55.073 87.7 2.6 96 10.1
2004-03-26 07:51:57 51°16.196 2°55.08 87.3 2.6 99 10.2
2004-03-26 07:52:01 51°16.196 2°55.084 87 2.5 92 10.2
2004-03-26 07:52:07 51°16.195 2°55.091 86.6 2.6 98 10.2
2004-03-26 07:52:11 51°16.195 2°55.095 86.2 2.5 97 10.2
2004-03-26 07:52:16 51°16.195 2°55.101 86.1 2.5 94 10.2
2004-03-26 07:52:21 51°16.194 2°55.107 85.8 2.5 93 10.1
2004-03-26 07:52:27 51°16.194 2°55.113 85.5 2.5 94 10.1
2004-03-26 07:52:32 51°16.194 2°55.119 85.1 2.6 95 10.2
2004-03-26 07:52:35 51°16.194 2°55.122 84.6 2.5 92 10.2
2004-03-26 07:52:41 51°16.194 2°55.129 84.1 2.5 92 10.3
2004-03-26 07:52:45 51°16.193 2°55.133 83.8 2.5 93 10.3
2004-03-26 07:52:51 51°16.193 2°55.14 83.3 2.5 91 10.3
2004-03-26 07:52:57 51°16.193 2°55.146 83.2 2.5 90 10.2
2004-03-26 07:53:01 51°16.193 2°55.151 82.8 2.5 92 10.1
2004-03-26 07:53:07 51°16.193 2°55.157 82.8 2.4 91 10.1
2004-03-26 07:53:11 51°16.193 2°55.161 82.7 2.4 90 10.1
2004-03-26 07:53:16 51°16.193 2°55.167 82.3 2.4 90 10
2004-03-26 07:53:21 51°16.193 2°55.172 82 2.4 87 10
2004-03-26 07:53:27 51°16.193 2°55.179 81.6 2.4 90 10.1
2004-03-26 07:53:31 51°16.194 2°55.183 81 2.4 83 10.1
2004-03-26 07:53:37 51°16.194 2°55.189 80.5 2.5 87 10.1
2004-03-26 07:53:41 51°16.194 2°55.193 79.8 2.4 84 10.1
2004-03-26 07:53:47 51°16.195 2°55.2 79.5 2.4 87 10.1
2004-03-26 07:53:52 51°16.195 2°55.205 78.7 2.5 84 10.1
2004-03-26 07:53:57 51°16.196 2°55.21 78.3 2.4 78 10.1
2004-03-26 07:54:01 51°16.196 2°55.214 77.6 2.5 83 10.1
2004-03-26 07:54:07 51°16.196 2°55.221 77.3 2.4 77 10.1
2004-03-26 07:54:12 51°16.197 2°55.226 77.1 2.4 80 10.1
2004-03-26 07:54:17 51°16.197 2°55.231 76.6 2.4 79 10
2004-03-26 07:54:21 51°16.198 2°55.235 76.4 2.4 80 9.9
2004-03-26 07:54:27 51°16.199 2°55.242 76.3 2.4 75 10
2004-03-26 07:54:31 51°16.199 2°55.246 76.1 2.5 81 10.1
2004-03-26 07:54:37 51°16.2 2°55.252 75.7 2.4 76 10.1
2004-03-26 07:54:41 51°16.2 2°55.257 75.3 2.5 80 10
2004-03-26 07:54:47 51°16.202 2°55.263 74.7 2.4 75 10.1
2004-03-26 07:54:51 51°16.202 2°55.267 74.4 2.4 76 10
2004-03-26 07:54:57 51°16.203 2°55.273 74 2.4 75 10
2004-03-26 07:55:01 51°16.204 2°55.277 73.6 2.4 80 9.9
2004-03-26 07:55:07 51°16.205 2°55.283 73.6 2.5 78 9.9
2004-03-26 07:55:11 51°16.205 2°55.288 73.7 2.4 77 9.9
2004-03-26 07:55:17 51°16.207 2°55.294 74.1 2.4 71 10
2004-03-26 07:55:21 51°16.207 2°55.298 74.2 2.5 79 10
2004-03-26 07:55:27 51°16.208 2°55.305 74.9 2.5 74 10
2004-03-26 07:55:31 51°16.209 2°55.309 75.2 2.5 79 9.9
2004-03-26 07:55:36 51°16.209 2°55.315 76.1 2.5 79 9.8
2004-03-26 07:55:41 51°16.21 2°55.32 76.9 2.5 79 9.9
2004-03-26 07:55:47 51°16.21 2°55.327 77.6 2.5 82 9.9
2004-03-26 07:55:51 51°16.211 2°55.331 77.7 2.6 82 9.9
2004-03-26 07:55:56 51°16.211 2°55.337 78.4 2.6 84 9.9
2004-03-26 07:56:01 51°16.212 2°55.343 79.1 2.6 82 9.9
2004-03-26 07:56:07 51°16.212 2°55.35 79.4 2.5 83 9.9
2004-03-26 07:56:11 51°16.212 2°55.354 80.3 2.6 84 9.9
2004-03-26 07:56:17 51°16.213 2°55.361 80.5 2.5 84 9.8
2004-03-26 07:56:21 51°16.213 2°55.365 81.4 2.6 89 9.8
2004-03-26 07:56:27 51°16.213 2°55.372 82.3 2.6 84 9.9
2004-03-26 07:56:31 51°16.213 2°55.377 83.1 2.6 92 9.8
2004-03-26 07:56:36 51°16.213 2°55.383 83.7 2.6 88 9.8
2004-03-26 07:56:41 51°16.213 2°55.389 84.2 2.6 96 9.8
2004-03-26 07:56:47 51°16.212 2°55.396 84.8 2.6 87 9.9
2004-03-26 07:56:52 51°16.212 2°55.401 85.4 2.6 91 9.8
2004-03-26 07:56:56 51°16.212 2°55.406 86.2 2.6 96 10
2004-03-26 07:57:01 51°16.212 2°55.412 87 2.6 93 9.9
2004-03-26 07:57:07 51°16.211 2°55.419 87.3 2.7 96 9.9
2004-03-26 07:57:12 51°16.211 2°55.425 88.1 2.7 97 9.8
2004-03-26 07:57:17 51°16.21 2°55.431 88.7 2.7 100 9.8
2004-03-26 07:57:21 51°16.209 2°55.436 89.5 2.8 103 9.8
2004-03-26 07:57:27 51°16.209 2°55.442 90.5 2.7 99 9.8
2004-03-26 07:57:31 51°16.208 2°55.447 91.3 2.7 100 9.7
2004-03-26 07:57:37 51°16.207 2°55.454 91.9 2.7 101 9.7
2004-03-26 07:57:41 51°16.206 2°55.459 92.6 2.8 106 9.7
2004-03-26 07:57:47 51°16.205 2°55.466 93.4 2.8 103 9.7
2004-03-26 07:57:51 51°16.204 2°55.471 94 2.8 110 9.7
2004-03-26 07:57:57 51°16.203 2°55.478 94.6 2.7 103 9.7
2004-03-26 07:58:01 51°16.201 2°55.482 95.2 2.8 111 9.7
2004-03-26 07:58:07 51°16.2 2°55.489 96.1 2.8 105 9.7
2004-03-26 07:58:11 51°16.199 2°55.494 96.8 2.8 110 9.7
2004-03-26 07:58:17 51°16.197 2°55.501 97.3 2.8 111 9.7
2004-03-26 07:58:21 51°16.196 2°55.506 98.3 2.8 109 9.7
2004-03-26 07:58:27 51°16.194 2°55.513 98.8 2.8 113 9.7
2004-03-26 07:58:31 51°16.193 2°55.517 99.5 2.9 116 9.7
2004-03-26 07:58:37 51°16.191 2°55.524 99 2.8 113 9.8
2004-03-26 07:58:41 51°16.19 2°55.529 98.7 2.7 112 9.7
2004-03-26 07:58:47 51°16.189 2°55.536 98.6 2.8 110 9.6
2004-03-26 07:58:51 51°16.188 2°55.54 97.9 2.7 108 9.6
2004-03-26 07:58:56 51°16.186 2°55.546 96.9 2.8 110 9.7
2004-03-26 07:59:01 51°16.185 2°55.551 96.2 2.6 105 9.7
2004-03-26 07:59:05 51°16.183 2°55.556 95.4 2.8 113 9.7
2004-03-26 07:59:12 51°16.182 2°55.564 94.8 2.6 106 9.6
2004-03-26 07:59:17 51°16.181 2°55.569 94.3 2.7 112 9.6
2004-03-26 07:59:21 51°16.18 2°55.574 93.9 2.6 103 9.6
2004-03-26 07:59:27 51°16.179 2°55.581 93.2 2.7 109 9.6
2004-03-26 07:59:31 51°16.178 2°55.585 92.5 2.6 102 9.7
2004-03-26 07:59:37 51°16.177 2°55.592 91.5 2.6 106 9.6
2004-03-26 07:59:41 51°16.177 2°55.596 90.7 2.5 102 9.6
2004-03-26 07:59:47 51°16.176 2°55.603 90 2.6 103 9.6
2004-03-26 07:59:51 51°16.176 2°55.607 89.2 2.5 100 9.5
2004-03-26 07:59:57 51°16.175 2°55.614 88.6 2.5 98 9.5
2004-03-26 08:00:02 51°16.174 2°55.619 87.8 2.5 96 9.5
2004-03-26 08:00:07 51°16.174 2°55.625 87 2.5 96 9.5
2004-03-26 08:00:11 51°16.174 2°55.629 86.2 2.5 93 9.5
2004-03-26 08:00:16 51°16.173 2°55.635 85.5 2.4 92 9.4
2004-03-26 08:00:21 51°16.173 2°55.64 84.5 2.5 88 9.5
2004-03-26 08:00:27 51°16.173 2°55.647 83.7 2.5 94 9.5
2004-03-26 08:00:32 51°16.173 2°55.652 83.5 2.5 89 9.4
2004-03-26 08:00:36 51°16.173 2°55.657 83.1 2.5 92 9.4
2004-03-26 08:00:41 51°16.173 2°55.662 82.9 2.5 88 9.4
2004-03-26 08:00:47 51°16.173 2°55.669 82.7 2.5 88 9.4
2004-03-26 08:00:51 51°16.173 2°55.673 82.6 2.5 89 9.4
2004-03-26 08:00:57 51°16.173 2°55.68 82.8 2.5 90 9.3
2004-03-26 08:01:01 51°16.174 2°55.684 82.4 2.5 88 9.3
2004-03-26 08:01:07 51°16.174 2°55.691 82.5 2.5 91 9.3
2004-03-26 08:01:12 51°16.174 2°55.697 82 2.5 90 9.4
2004-03-26 08:01:16 51°16.174 2°55.701 82 2.6 91 9.4
2004-03-26 08:01:21 51°16.174 2°55.707 81.8 2.5 85 9.4
2004-03-26 08:01:27 51°16.174 2°55.713 81.8 2.5 92 9.4
2004-03-26 08:01:31 51°16.174 2°55.718 81.7 2.5 85 9.4
2004-03-26 08:01:37 51°16.174 2°55.724 81.7 2.5 88 9.4
2004-03-26 08:01:41 51°16.174 2°55.729 81.7 2.5 86 9.3
2004-03-26 08:01:47 51°16.175 2°55.735 81.6 2.6 91 9.4
2004-03-26 08:01:51 51°16.174 2°55.74 81.5 2.5 89 9.3
2004-03-26 08:01:57 51°16.175 2°55.746 81.3 2.5 85 9.3
2004-03-26 08:02:01 51°16.175 2°55.751 81.1 2.5 88 9.2
2004-03-26 08:02:07 51°16.175 2°55.758 81.2 2.5 89 9.3
2004-03-26 08:02:12 51°16.175 2°55.763 80.9 2.5 86 9.3
2004-03-26 08:02:16 51°16.176 2°55.768 80.7 2.5 87 9.5
2004-03-26 08:02:22 51°16.176 2°55.775 80.7 2.5 87 9.4
2004-03-26 08:02:25 51°16.176 2°55.778 80.6 2.5 87 9.5
2004-03-26 08:02:31 51°16.176 2°55.785 80.5 2.5 85 9.4
2004-03-26 08:02:36 51°16.176 2°55.79 80.4 2.6 86 9.3
2004-03-26 08:02:41 51°16.177 2°55.796 80 2.5 82 9.3
2004-03-26 08:02:47 51°16.177 2°55.803 80.1 2.5 88 9.3
2004-03-26 08:02:52 51°16.177 2°55.808 79.8 2.5 86 9.4
2004-03-26 08:02:57 51°16.178 2°55.814 79.6 2.5 84 9.2
2004-03-26 08:03:01 51°16.178 2°55.818 79.7 2.6 85 9.4
2004-03-26 08:03:07 51°16.179 2°55.825 79.4 2.5 85 9.3
2004-03-26 08:03:12 51°16.179 2°55.831 79.8 2.5 82 9.4
2004-03-26 08:03:17 51°16.179 2°55.836 79.5 2.5 85 9.2
2004-03-26 08:03:21 51°16.179 2°55.84 79.7 2.5 84 9.3
2004-03-26 08:03:27 51°16.18 2°55.847 79.9 2.5 81 9.3
2004-03-26 08:03:31 51°16.18 2°55.851 79.7 2.5 88 9.2
2004-03-26 08:03:36 51°16.18 2°55.857 79.8 2.5 81 9.3
2004-03-26 08:03:41 51°16.181 2°55.863 79.5 2.6 89 9.3
2004-03-26 08:03:47 51°16.181 2°55.869 79.8 2.5 86 9.3
2004-03-26 08:03:51 51°16.181 2°55.874 80 2.5 86 9.2
2004-03-26 08:03:56 51°16.182 2°55.88 80.3 2.6 85 9.3
2004-03-26 08:04:01 51°16.182 2°55.885 80.4 2.5 84 9.3
2004-03-26 08:04:07 51°16.182 2°55.892 80.4 2.6 90 9.3
2004-03-26 08:04:11 51°16.182 2°55.896 80.4 2.5 89 9.3
2004-03-26 08:04:17 51°16.183 2°55.903 80.6 2.6 85 9.3
2004-03-26 08:04:21 51°16.183 2°55.908 80.6 2.6 88 9.4
2004-03-26 08:04:27 51°16.183 2°55.914 80.3 2.5 88 9.3
2004-03-26 08:04:32 51°16.183 2°55.92 80.9 2.5 84 9.2
2004-03-26 08:04:37 51°16.183 2°55.925 80.7 2.5 89 9.1
2004-03-26 08:04:41 51°16.184 2°55.93 80.8 2.5 84 9.2
2004-03-26 08:04:47 51°16.184 2°55.937 80.7 2.5 87 9.2
2004-03-26 08:04:51 51°16.184 2°55.941 80.7 2.6 86 9.2
2004-03-26 08:04:57 51°16.184 2°55.948 80.6 2.6 86 9.3
2004-03-26 08:05:01 51°16.184 2°55.953 80.6 2.6 87 9.3
2004-03-26 08:05:07 51°16.185 2°55.959 80.4 2.6 86 9.3
2004-03-26 08:05:11 51°16.185 2°55.964 80.3 2.6 88 9.1
2004-03-26 08:05:17 51°16.185 2°55.971 80.4 2.6 82 9.2
2004-03-26 08:05:21 51°16.185 2°55.975 80.4 2.6 93 9.3
2004-03-26 08:05:27 51°16.186 2°55.982 80.5 2.5 82 9.2
2004-03-26 08:05:32 51°16.186 2°55.988 80.7 2.6 87 9.1
2004-03-26 08:05:37 51°16.186 2°55.993 80.7 2.6 85 9.1
2004-03-26 08:05:41 51°16.186 2°55.998 80.9 2.6 87 9.1
2004-03-26 08:05:47 51°16.187 2°56.004 80.8 2.6 87 9.1
2004-03-26 08:05:51 51°16.187 2°56.009 80.7 2.6 85 9.2
2004-03-26 08:05:56 51°16.187 2°56.015 81 2.6 86 9.1
2004-03-26 08:06:01 51°16.188 2°56.021 81.1 2.6 86 9.1
2004-03-26 08:06:07 51°16.187 2°56.027 81 2.6 89 9.1
2004-03-26 08:06:12 51°16.188 2°56.033 81.2 2.6 87 9.1
2004-03-26 08:06:17 51°16.188 2°56.039 81.2 2.6 87 9.1
2004-03-26 08:06:21 51°16.188 2°56.043 81.2 2.5 85 9.1
2004-03-26 08:06:27 51°16.188 2°56.05 80.7 2.6 88 9.1
2004-03-26 08:06:31 51°16.188 2°56.054 80.5 2.5 84 9.2
2004-03-26 08:06:36 51°16.188 2°56.06 80.3 2.6 91 9.2
2004-03-26 08:06:41 51°16.189 2°56.066 80.3 2.5 84 9.1
2004-03-26 08:06:47 51°16.189 2°56.072 79.7 2.5 86 9
2004-03-26 08:06:52 51°16.19 2°56.077 79.4 2.5 84 9
2004-03-26 08:06:57 51°16.19 2°56.083 79.1 2.5 84 9.1
2004-03-26 08:07:01 51°16.19 2°56.087 78.5 2.5 86 9.1
2004-03-26 08:07:07 51°16.191 2°56.094 77.9 2.5 80 9.1
2004-03-26 08:07:11 51°16.191 2°56.098 77.6 2.5 82 9.3
2004-03-26 08:07:16 51°16.192 2°56.103 76.9 2.5 79 9.1
2004-03-26 08:07:21 51°16.192 2°56.109 76.6 2.5 82 9.1
2004-03-26 08:07:27 51°16.193 2°56.115 76.2 2.5 78 9.1
2004-03-26 08:07:32 51°16.194 2°56.121 75.9 2.5 78 9.1
2004-03-26 08:07:36 51°16.195 2°56.125 75.3 2.4 76 9.1
2004-03-26 08:07:41 51°16.195 2°56.13 74.9 2.5 76 9.2
2004-03-26 08:07:47 51°16.197 2°56.136 74.3 2.5 72 9.1
2004-03-26 08:07:52 51°16.197 2°56.142 73.7 2.5 77 9.1
2004-03-26 08:07:57 51°16.199 2°56.147 73.3 2.4 70 9
2004-03-26 08:08:01 51°16.199 2°56.151 73 2.5 78 9.1
2004-03-26 08:08:07 51°16.2 2°56.158 73 2.4 70 9.1
2004-03-26 08:08:11 51°16.201 2°56.162 73.3 2.5 75 9
2004-03-26 08:08:16 51°16.202 2°56.167 73.8 2.5 75 9
2004-03-26 08:08:21 51°16.203 2°56.173 74.6 2.6 76 8.9
2004-03-26 08:08:27 51°16.203 2°56.179 75.2 2.5 78 9
2004-03-26 08:08:31 51°16.204 2°56.184 75.7 2.6 80 9
2004-03-26 08:08:36 51°16.205 2°56.189 76.3 2.6 80 9.1
2004-03-26 08:08:42 51°16.205 2°56.196 77 2.5 81 9.1
2004-03-26 08:08:47 51°16.206 2°56.202 77.6 2.6 81 9.1
2004-03-26 08:08:52 51°16.206 2°56.207 78.3 2.6 81 9.1
2004-03-26 08:08:57 51°16.206 2°56.213 79.1 2.6 83 9
2004-03-26 08:09:01 51°16.206 2°56.218 79.6 2.6 88 9.1
2004-03-26 08:09:07 51°16.207 2°56.225 79.8 2.6 80 9
2004-03-26 08:09:11 51°16.207 2°56.229 79.8 2.6 86 9.1
2004-03-26 08:09:16 51°16.208 2°56.235 79.8 2.6 86 9
2004-03-26 08:09:21 51°16.208 2°56.24 79.6 2.5 83 9
2004-03-26 08:09:27 51°16.209 2°56.247 79.7 2.6 84 9.1
2004-03-26 08:09:32 51°16.209 2°56.253 79.3 2.6 86 9
2004-03-26 08:09:37 51°16.209 2°56.258 79.8 2.6 81 9
2004-03-26 08:09:42 51°16.21 2°56.264 79.5 2.6 85 9
2004-03-26 08:09:47 51°16.21 2°56.27 79.4 2.5 81 9.1
2004-03-26 08:09:51 51°16.21 2°56.274 79.5 2.6 84 8.9
2004-03-26 08:09:57 51°16.211 2°56.281 79.5 2.6 82 8.9
2004-03-26 08:10:01 51°16.211 2°56.285 79.6 2.6 82 9
2004-03-26 08:10:07 51°16.212 2°56.292 79.6 2.6 81 8.9
2004-03-26 08:10:12 51°16.212 2°56.298 79.7 2.6 82 9
2004-03-26 08:10:17 51°16.213 2°56.303 79.7 2.6 82 9
2004-03-26 08:10:22 51°16.213 2°56.309 79.9 2.6 82 9
2004-03-26 08:10:27 51°16.213 2°56.315 80.2 2.6 86 9
2004-03-26 08:10:32 51°16.213 2°56.321 80.5 2.6 84 8.9
2004-03-26 08:10:37 51°16.214 2°56.326 80.6 2.6 87 8.9
2004-03-26 08:10:41 51°16.214 2°56.331 81.2 2.6 83 9
2004-03-26 08:10:47 51°16.214 2°56.338 81.2 2.6 85 9
2004-03-26 08:10:51 51°16.214 2°56.342 81.6 2.6 87 8.9
2004-03-26 08:10:57 51°16.214 2°56.349 82 2.6 88 8.9
2004-03-26 08:11:01 51°16.214 2°56.354 82 2.6 87 8.9
2004-03-26 08:11:07 51°16.215 2°56.361 82.2 2.6 88 8.9
2004-03-26 08:11:11 51°16.214 2°56.366 82.6 2.6 93 9.1
2004-03-26 08:11:17 51°16.214 2°56.372 82.7 2.6 89 9
2004-03-26 08:11:21 51°16.214 2°56.377 83 2.6 89 9
2004-03-26 08:11:27 51°16.214 2°56.384 83.2 2.6 89 8.9
2004-03-26 08:11:31 51°16.214 2°56.388 83.4 2.6 91 8.9
2004-03-26 08:11:36 51°16.214 2°56.394 83.7 2.6 90 8.9
2004-03-26 08:11:41 51°16.214 2°56.4 83.6 2.6 98 8.8
2004-03-26 08:11:47 51°16.213 2°56.407 84.9 2.6 95 8.8
2004-03-26 08:11:51 51°16.213 2°56.411 86.3 2.6 100 8.8
2004-03-26 08:11:57 51°16.212 2°56.418 88.8 2.7 103 8.9
2004-03-26 08:12:01 51°16.211 2°56.423 91.1 2.6 103 8.8
2004-03-26 08:12:07 51°16.21 2°56.43 94.3 2.7 110 8.8
2004-03-26 08:12:11 51°16.209 2°56.434 97.2 2.7 114 8.9
2004-03-26 08:12:16 51°16.207 2°56.44 100.7 2.8 118 8.9
2004-03-26 08:12:21 51°16.205 2°56.444 103 2.8 118 8.8
2004-03-26 08:12:27 51°16.203 2°56.449 106 2.4 125 8.9
2004-03-26 08:12:32 51°16.2 2°56.453 108.8 2.4 133 8.8
2004-03-26 08:12:37 51°16.198 2°56.456 111 2.2 139 8.8
2004-03-26 08:12:41 51°16.196 2°56.459 113.3 2.1 137 8.8
2004-03-26 08:12:47 51°16.194 2°56.462 116 2.3 147 8.8
2004-03-26 08:12:52 51°16.191 2°56.464 118 2.2 154 8.8
2004-03-26 08:12:56 51°16.189 2°56.466 120.3 2 149 8.8
2004-03-26 08:13:01 51°16.186 2°56.468 121.8 2.1 160 8.8
2004-03-26 08:13:07 51°16.183 2°56.469 123.9 2.1 161 8.8
2004-03-26 08:13:11 51°16.181 2°56.471 125.5 2 165 8.6
2004-03-26 08:13:16 51°16.179 2°56.471 127.4 1.9 166 8.7
2004-03-26 08:13:21 51°16.176 2°56.472 129.1 1.9 164 8.8
2004-03-26 08:13:27 51°16.173 2°56.473 130.6 2 171 8.7
2004-03-26 08:13:31 51°16.171 2°56.474 132 1.9 174 8.7
2004-03-26 08:13:37 51°16.168 2°56.474 133.4 1.9 175 8.7
2004-03-26 08:13:41 51°16.166 2°56.474 134.8 1.9 173 8.7
2004-03-26 08:13:47 51°16.162 2°56.474 135.6 1.8 179 8.7
2004-03-26 08:13:51 51°16.16 2°56.474 137.1 2 185 8.6
2004-03-26 08:13:57 51°16.157 2°56.474 138.6 1.9 180 8.6
2004-03-26 08:14:01 51°16.155 2°56.474 139.8 1.9 182 8.6
2004-03-26 08:14:05 51°16.153 2°56.473 140.8 1.8 183 8.7
2004-03-26 08:14:12 51°16.149 2°56.472 141.5 2 188 8.6
2004-03-26 08:14:17 51°16.147 2°56.472 142.5 1.8 185 8.6
2004-03-26 08:14:21 51°16.145 2°56.471 143.3 2 191 8.7
2004-03-26 08:14:27 51°16.142 2°56.47 144.1 1.8 189 8.6
2004-03-26 08:14:31 51°16.139 2°56.469 144.6 2 192 8.7
2004-03-26 08:14:37 51°16.136 2°56.469 145.3 2 188 8.7
2004-03-26 08:14:41 51°16.134 2°56.468 146.8 2.1 188 8.6
2004-03-26 08:14:47 51°16.13 2°56.468 149.1 2.3 186 8.5
2004-03-26 08:14:51 51°16.127 2°56.467 152.1 2.5 186 8.6
2004-03-26 08:14:57 51°16.123 2°56.466 155.4 2.6 186 8.6
2004-03-26 08:15:01 51°16.119 2°56.466 158.9 2.8 189 8.6
2004-03-26 08:15:07 51°16.115 2°56.464 162.1 2.9 189 8.5
2004-03-26 08:15:11 51°16.111 2°56.463 166.8 3.1 194 8.5
2004-03-26 08:15:16 51°16.107 2°56.461 170.9 3.2 194 8.5
2004-03-26 08:15:21 51°16.103 2°56.459 175.4 3.4 200 8.5
2004-03-26 08:15:27 51°16.097 2°56.456 179.8 3.4 200 8.5
2004-03-26 08:15:31 51°16.094 2°56.453 184.2 3.6 205 8.5
2004-03-26 08:15:37 51°16.088 2°56.449 189 3.6 205 8.4
2004-03-26 08:15:41 51°16.084 2°56.445 193.5 3.8 211 8.4
2004-03-26 08:15:47 51°16.079 2°56.44 197.4 3.8 212 8.4
2004-03-26 08:15:51 51°16.076 2°56.436 202.8 3.9 218 8.4
2004-03-26 08:15:57 51°16.071 2°56.429 206.7 3.9 217 8.4
2004-03-26 08:16:01 51°16.067 2°56.425 212.2 3.9 217 8.3
2004-03-26 08:16:07 51°16.063 2°56.417 216.8 4 224 8.4
2004-03-26 08:16:11 51°16.06 2°56.412 220.4 4 226 8.3
2004-03-26 08:16:16 51°16.056 2°56.406 223 4 228 8.3
2004-03-26 08:16:21 51°16.052 2°56.399 224.8 4 227 8.4
2004-03-26 08:16:27 51°16.048 2°56.391 226.6 4 230 8.4
2004-03-26 08:16:31 51°16.045 2°56.386 227.7 4.1 231 8.4
2004-03-26 08:16:36 51°16.041 2°56.378 229 4.1 232 8.4
2004-03-26 08:16:41 51°16.038 2°56.371 229.8 4 231 8.3
2004-03-26 08:16:47 51°16.034 2°56.363 231 4.1 234 8.3
2004-03-26 08:16:51 51°16.031 2°56.357 232.2 4 235 8.3
2004-03-26 08:16:56 51°16.028 2°56.35 233.4 3.9 231 8.3
2004-03-26 08:17:01 51°16.024 2°56.343 234 4 237 8.3
2004-03-26 08:17:07 51°16.021 2°56.335 234.8 3.9 234 8.4
2004-03-26 08:17:12 51°16.018 2°56.327 235.8 3.9 238 8.3
2004-03-26 08:17:17 51°16.015 2°56.32 236.9 3.9 235 8.4
2004-03-26 08:17:21 51°16.013 2°56.314 238.1 3.9 240 8.4
2004-03-26 08:17:27 51°16.009 2°56.306 239.2 3.8 237 8.3
2004-03-26 08:17:31 51°16.007 2°56.3 240.3 3.8 242 8.4
2004-03-26 08:17:37 51°16.004 2°56.292 241.3 3.8 237 8.3
2004-03-26 08:17:41 51°16.002 2°56.286 242.3 3.8 241 8.3
2004-03-26 08:17:47 51°15.998 2°56.277 243.2 3.8 242 8.3
2004-03-26 08:17:51 51°15.997 2°56.271 243.8 3.8 246 8.4
2004-03-26 08:17:57 51°15.993 2°56.262 244.9 3.8 238 8.4
2004-03-26 08:18:01 51°15.992 2°56.256 245.9 3.8 238 8.4
2004-03-26 08:18:07 51°15.989 2°56.247 247 3.8 239 8.4
2004-03-26 08:18:12 51°15.987 2°56.24 247.7 3.8 246 8.4
2004-03-26 08:18:15 51°15.985 2°56.235 249.6 3.8 242 8.3
2004-03-26 08:18:21 51°15.983 2°56.226 250.9 3.8 248 8.4
2004-03-26 08:18:27 51°15.98 2°56.217 252.1 3.8 247 8.4
2004-03-26 08:18:31 51°15.979 2°56.211 253.6 3.8 252 8.5
2004-03-26 08:18:36 51°15.977 2°56.203 254.7 3.8 245 8.4
2004-03-26 08:18:41 51°15.975 2°56.195 256.2 3.8 251 8.4
2004-03-26 08:18:46 51°15.973 2°56.187 257.6 3.7 252 8.3
2004-03-26 08:18:52 51°15.972 2°56.177 259.1 3.7 256 8.4
2004-03-26 08:18:57 51°15.97 2°56.17 260.2 3.8 250 8.4
2004-03-26 08:19:01 51°15.969 2°56.163 261.8 3.7 257 8.4
2004-03-26 08:19:07 51°15.967 2°56.154 263.4 3.7 254 8.4
2004-03-26 08:19:11 51°15.966 2°56.147 265.3 3.7 259 8.5
2004-03-26 08:19:17 51°15.964 2°56.138 266.4 3.7 254 8.4
2004-03-26 08:19:21 51°15.963 2°56.131 267.8 3.6 259 8.3
2004-03-26 08:19:27 51°15.962 2°56.121 269.1 3.7 257 8.3
2004-03-26 08:19:31 51°15.961 2°56.115 270.6 3.6 260 8.3
2004-03-26 08:19:37 51°15.96 2°56.105 271.6 3.7 260 8.4
2004-03-26 08:19:41 51°15.959 2°56.099 272.4 3.7 259 8.3
2004-03-26 08:19:47 51°15.958 2°56.089 273.2 3.6 260 8.3
2004-03-26 08:19:52 51°15.958 2°56.081 273.8 3.6 263 8.4
2004-03-26 08:19:57 51°15.957 2°56.073 274.3 3.7 260 8.4
2004-03-26 08:20:01 51°15.956 2°56.067 275 3.7 261 8.4
2004-03-26 08:20:07 51°15.955 2°56.057 275.5 3.6 262 8.4
2004-03-26 08:20:11 51°15.955 2°56.051 275.8 3.6 263 8.4
2004-03-26 08:20:17 51°15.954 2°56.041 276.2 3.6 263 8.5
2004-03-26 08:20:21 51°15.953 2°56.035 276.8 3.6 263 8.4
2004-03-26 08:20:27 51°15.953 2°56.025 277.7 3.6 265 8.4
2004-03-26 08:20:32 51°15.952 2°56.017 278.3 3.6 263 8.4
2004-03-26 08:20:37 51°15.952 2°56.009 278.9 3.6 264 8.4
2004-03-26 08:20:41 51°15.951 2°56.003 279.4 3.6 264 8.4
2004-03-26 08:20:47 51°15.951 2°55.994 280.2 3.6 266 8.4
2004-03-26 08:20:51 51°15.95 2°55.987 280.5 3.6 264 8.5
2004-03-26 08:20:56 51°15.95 2°55.979 281.3 3.6 266 8.4
2004-03-26 08:21:01 51°15.949 2°55.971 281.7 3.6 264 8.4
2004-03-26 08:21:07 51°15.949 2°55.962 282.2 3.6 264 8.5
2004-03-26 08:21:11 51°15.949 2°55.956 282.4 3.6 264 8.5
2004-03-26 08:21:17 51°15.948 2°55.947 282.7 3.5 267 8.6
2004-03-26 08:21:21 51°15.948 2°55.94 283 3.6 266 8.6
2004-03-26 08:21:27 51°15.948 2°55.931 283.5 3.6 266 8.5
2004-03-26 08:21:31 51°15.947 2°55.925 283.9 3.6 265 8.5
2004-03-26 08:21:36 51°15.947 2°55.917 284.5 3.5 268 8.4
2004-03-26 08:21:41 51°15.947 2°55.909 285.2 3.6 267 8.5
2004-03-26 08:21:47 51°15.946 2°55.9 285.4 3.5 269 8.5
2004-03-26 08:21:52 51°15.946 2°55.892 286.1 3.6 267 8.6
2004-03-26 08:21:57 51°15.946 2°55.884 286.8 3.5 270 8.5
2004-03-26 08:22:01 51°15.946 2°55.878 287.4 3.6 266 8.5
2004-03-26 08:22:07 51°15.946 2°55.869 287.7 3.6 270 8.6
2004-03-26 08:22:11 51°15.945 2°55.862 288.6 3.5 271 8.6
2004-03-26 08:22:17 51°15.945 2°55.853 289.2 3.6 269 8.7
2004-03-26 08:22:21 51°15.945 2°55.847 290 3.5 270 8.7
2004-03-26 08:22:27 51°15.945 2°55.837 290.8 3.5 271 8.8
2004-03-26 08:22:31 51°15.946 2°55.831 291.6 3.5 273 8.7
2004-03-26 08:22:37 51°15.946 2°55.822 291.7 3.5 270 8.6
2004-03-26 08:22:41 51°15.946 2°55.816 292.5 3.4 274 8.6
2004-03-26 08:22:45 51°15.946 2°55.809 292.9 3.5 272 8.7
2004-03-26 08:22:52 51°15.946 2°55.799 293.7 3.5 274 8.7
2004-03-26 08:22:57 51°15.947 2°55.791 294 3.5 272 8.6
2004-03-26 08:23:01 51°15.947 2°55.785 294.6 3.5 273 8.7
2004-03-26 08:23:07 51°15.947 2°55.776 295.1 3.5 273 8.6
2004-03-26 08:23:11 51°15.948 2°55.77 295.7 3.4 275 8.7
2004-03-26 08:23:17 51°15.948 2°55.761 296.1 3.5 273 8.8
2004-03-26 08:23:21 51°15.948 2°55.755 296.3 3.5 275 8.6
2004-03-26 08:23:27 51°15.948 2°55.746 296.7 3.5 274 8.7
2004-03-26 08:23:32 51°15.949 2°55.738 297.1 3.4 274 8.8
2004-03-26 08:23:37 51°15.949 2°55.731 297.7 3.4 274 8.6
2004-03-26 08:23:41 51°15.949 2°55.725 297.8 3.4 274 8.6
2004-03-26 08:23:47 51°15.95 2°55.716 297.8 3.5 274 8.7
2004-03-26 08:23:51 51°15.95 2°55.71 298.3 3.4 275 8.7
2004-03-26 08:23:57 51°15.951 2°55.701 298.6 3.4 275 8.7
2004-03-26 08:24:01 51°15.951 2°55.695 299.4 3.3 277 8.8
2004-03-26 08:24:07 51°15.952 2°55.686 299.7 3.3 277 8.7
2004-03-26 08:24:11 51°15.952 2°55.68 300.4 3.4 276 8.7
2004-03-26 08:24:17 51°15.953 2°55.671 300.6 3.4 277 8.7
2004-03-26 08:24:21 51°15.954 2°55.665 301.1 3.3 278 8.8
2004-03-26 08:24:27 51°15.954 2°55.657 301.6 3.3 277 8.8
2004-03-26 08:24:32 51°15.955 2°55.649 301.9 3.4 276 8.8
2004-03-26 08:24:37 51°15.956 2°55.642 302.5 3.2 278 8.7
2004-03-26 08:24:41 51°15.956 2°55.637 302.6 3.3 278 8.8
2004-03-26 08:24:47 51°15.957 2°55.628 303.2 3.3 279 8.7
2004-03-26 08:24:51 51°15.958 2°55.622 303.5 3.3 279 8.7
2004-03-26 08:24:55 51°15.958 2°55.617 304 3.2 282 8.7
2004-03-26 08:25:01 51°15.959 2°55.608 304.1 3.3 279 8.7
2004-03-26 08:25:07 51°15.96 2°55.6 304.2 3.2 281 8.8
2004-03-26 08:25:11 51°15.961 2°55.594 304.7 3.2 280 8.8
2004-03-26 08:25:17 51°15.962 2°55.586 304.9 3.2 281 8.7
2004-03-26 08:25:21 51°15.962 2°55.58 305 3.2 281 8.7
2004-03-26 08:25:27 51°15.963 2°55.572 304.9 3.2 281 8.8
2004-03-26 08:25:31 51°15.964 2°55.566 305.3 3.3 280 8.9
2004-03-26 08:25:36 51°15.965 2°55.559 305.5 3.3 279 9
2004-03-26 08:25:41 51°15.966 2°55.552 305.4 3.3 279 8.9
2004-03-26 08:25:47 51°15.967 2°55.543 305.6 3.2 281 8.8
2004-03-26 08:25:52 51°15.967 2°55.536 305.5 3.3 279 8.8
2004-03-26 08:25:57 51°15.968 2°55.529 305.8 3.2 281 8.7
2004-03-26 08:26:01 51°15.969 2°55.523 306.2 3.2 281 8.8
2004-03-26 08:26:07 51°15.97 2°55.515 306.4 3.3 281 8.8
2004-03-26 08:26:11 51°15.97 2°55.509 306.8 3.3 281 8.9
2004-03-26 08:26:15 51°15.971 2°55.503 307.3 3.3 281 8.9
2004-03-26 08:26:21 51°15.972 2°55.494 307.9 3.3 281 8.9
2004-03-26 08:26:27 51°15.973 2°55.486 308.2 3.2 282 8.9
2004-03-26 08:26:32 51°15.974 2°55.479 308.7 3.2 282 8.8
2004-03-26 08:26:37 51°15.975 2°55.472 309.1 3.3 282 8.9
2004-03-26 08:26:41 51°15.976 2°55.466 309.3 3.3 281 8.8
2004-03-26 08:26:47 51°15.977 2°55.457 309.5 3.2 282 8.8
2004-03-26 08:26:51 51°15.977 2°55.452 309.7 3.2 283 9
2004-03-26 08:26:57 51°15.978 2°55.443 310 3.2 282 9
2004-03-26 08:27:01 51°15.979 2°55.438 310.4 3.2 282 8.9
2004-03-26 08:27:07 51°15.98 2°55.429 310.6 3.2 282 8.9
2004-03-26 08:27:12 51°15.981 2°55.422 310.6 3.2 284 8.9
2004-03-26 08:27:16 51°15.982 2°55.417 310.8 3.3 282 9
2004-03-26 08:27:21 51°15.983 2°55.41 310.8 3.3 283 9
2004-03-26 08:27:27 51°15.984 2°55.401 311.1 3.2 283 9
2004-03-26 08:27:32 51°15.985 2°55.395 311.3 3.2 284 8.9
2004-03-26 08:27:37 51°15.987 2°55.388 311.6 3.2 285 9
2004-03-26 08:27:41 51°15.987 2°55.382 311.8 3.3 284 9.1
2004-03-26 08:27:47 51°15.989 2°55.374 312.1 3.3 285 9
2004-03-26 08:27:51 51°15.99 2°55.368 312.9 3.2 285 9
2004-03-26 08:27:56 51°15.991 2°55.362 313.3 3.2 286 9
2004-03-26 08:28:02 51°15.993 2°55.354 313.5 3.3 286 9
2004-03-26 08:28:07 51°15.994 2°55.347 313.9 3.2 285 8.9
2004-03-26 08:28:12 51°15.995 2°55.341 314 3.2 285 9.1
2004-03-26 08:28:17 51°15.997 2°55.334 314 3.2 286 9.1
2004-03-26 08:28:21 51°15.997 2°55.328 313.9 3.2 285 9.1
2004-03-26 08:28:25 51°15.998 2°55.323 313.9 3.2 286 9.1
2004-03-26 08:28:32 51°16 2°55.314 313.5 3.2 285 9
2004-03-26 08:28:37 51°16.001 2°55.307 313.2 3.2 284 9.1
2004-03-26 08:28:42 51°16.002 2°55.3 313 3.2 283 9.2
2004-03-26 08:28:47 51°16.003 2°55.293 312.6 3.3 282 9.2
2004-03-26 08:28:52 51°16.004 2°55.286 312.4 3.2 283 9.2
2004-03-26 08:28:57 51°16.005 2°55.279 312.1 3.3 283 9.2
2004-03-26 08:29:01 51°16.005 2°55.273 312 3.2 283 9.1
2004-03-26 08:29:07 51°16.006 2°55.265 311.7 3.2 282 9.2
2004-03-26 08:29:11 51°16.007 2°55.259 311.7 3.3 283 9.1
2004-03-26 08:29:16 51°16.008 2°55.252 311.4 3.3 281 9.2
2004-03-26 08:29:21 51°16.009 2°55.245 311.2 3.2 281 9.2
2004-03-26 08:29:27 51°16.01 2°55.237 311 3.2 282 9.1
2004-03-26 08:29:32 51°16.011 2°55.23 310.5 3.2 282 9.2
2004-03-26 08:29:37 51°16.012 2°55.223 310.2 3.3 281 9.2
2004-03-26 08:29:41 51°16.012 2°55.217 310.3 3.3 280 9.2
2004-03-26 08:29:47 51°16.013 2°55.209 310.1 3.3 281 9.3
2004-03-26 08:29:51 51°16.014 2°55.203 309.8 3.3 279 9.3
2004-03-26 08:29:57 51°16.015 2°55.194 309.9 3.3 281 9.2
2004-03-26 08:30:01 51°16.016 2°55.188 310.2 3.2 281 9.3
2004-03-26 08:30:07 51°16.017 2°55.18 310.1 3.2 282 9.2
2004-03-26 08:30:11 51°16.017 2°55.174 310.1 3.3 281 9.3
2004-03-26 08:30:16 51°16.018 2°55.167 309.9 3.2 280 9.3
2004-03-26 08:30:21 51°16.019 2°55.16 310.1 3.2 281 9.1
2004-03-26 08:30:27 51°16.02 2°55.152 309.9 3.3 280 9.2
2004-03-26 08:30:31 51°16.02 2°55.146 309.8 3.3 279 9.3
2004-03-26 08:30:36 51°16.021 2°55.139 309.9 3.2 281 9.3
2004-03-26 08:30:42 51°16.022 2°55.131 310 3.2 281 9.4
2004-03-26 08:30:47 51°16.023 2°55.124 309.9 3.3 281 9.4
2004-03-26 08:30:51 51°16.024 2°55.118 309.9 3.3 280 9.4
2004-03-26 08:30:56 51°16.025 2°55.111 310.2 3.2 282 9.4
2004-03-26 08:31:01 51°16.026 2°55.104 309.9 3.3 282 9.3
2004-03-26 08:31:07 51°16.027 2°55.096 309.8 3.3 280 9.4
2004-03-26 08:31:11 51°16.028 2°55.09 309.8 3.2 281 9.4
2004-03-26 08:31:17 51°16.029 2°55.082 309.8 3.2 280 9.4
2004-03-26 08:31:21 51°16.029 2°55.076 309.8 3.2 281 9.5
2004-03-26 08:31:25 51°16.03 2°55.07 309.8 3.2 281 9.4
2004-03-26 08:31:32 51°16.031 2°55.06 309.7 3.3 280 9.5
2004-03-26 08:31:37 51°16.032 2°55.053 309.6 3.2 280 9.4
2004-03-26 08:31:41 51°16.032 2°55.047 309.8 3.3 281 9.6
2004-03-26 08:31:47 51°16.034 2°55.039 309.6 3.3 281 9.5
2004-03-26 08:31:51 51°16.034 2°55.033 309.5 3.2 280 9.4
2004-03-26 08:31:56 51°16.035 2°55.026 309.4 3.3 281 9.5
2004-03-26 08:32:01 51°16.036 2°55.019 309.6 3.3 280 9.5
2004-03-26 08:32:07 51°16.037 2°55.01 309.5 3.3 281 9.6
2004-03-26 08:32:12 51°16.038 2°55.003 309.9 3.2 282 9.5
2004-03-26 08:32:17 51°16.039 2°54.996 310.1 3.3 281 9.6
2004-03-26 08:32:21 51°16.04 2°54.99 310.3 3.3 282 9.5
2004-03-26 08:32:27 51°16.041 2°54.982 310.5 3.3 282 9.6
2004-03-26 08:32:31 51°16.041 2°54.976 310.5 3.3 283 9.6
2004-03-26 08:32:37 51°16.043 2°54.968 310.7 3.3 282 9.7
2004-03-26 08:32:41 51°16.044 2°54.962 311 3.3 282 9.6
2004-03-26 08:32:47 51°16.044 2°54.953 310.9 3.3 282 9.5
2004-03-26 08:32:51 51°16.045 2°54.948 310.9 3.3 282 9.6
2004-03-26 08:32:56 51°16.046 2°54.941 311 3.3 281 9.6
2004-03-26 08:33:01 51°16.047 2°54.934 311 3.3 283 9.6
2004-03-26 08:33:07 51°16.048 2°54.925 311.4 3.3 281 9.7
2004-03-26 08:33:11 51°16.049 2°54.919 311.3 3.3 282 9.6
2004-03-26 08:33:17 51°16.05 2°54.911 311.3 3.3 282 9.6
2004-03-26 08:33:21 51°16.051 2°54.905 311.3 3.3 282 9.7
2004-03-26 08:33:27 51°16.053 2°54.897 311.4 3.3 282 9.7
2004-03-26 08:33:31 51°16.054 2°54.892 311.6 3.3 282 9.7
2004-03-26 08:33:36 51°16.055 2°54.885 311.9 3.3 283 9.8
2004-03-26 08:33:41 51°16.056 2°54.878 311.7 3.3 282 9.8
2004-03-26 08:33:47 51°16.057 2°54.869 311.5 3.2 282 9.7
2004-03-26 08:33:51 51°16.058 2°54.864 311.1 3.3 281 9.8
2004-03-26 08:33:57 51°16.059 2°54.855 310.8 3.3 281 9.8
2004-03-26 08:34:01 51°16.06 2°54.849 310.4 3.3 281 9.8
2004-03-26 08:34:07 51°16.061 2°54.841 310 3.3 280 9.8
2004-03-26 08:34:11 51°16.062 2°54.835 309.7 3.3 280 9.7
2004-03-26 08:34:16 51°16.062 2°54.828 309.4 3.3 278 9.8
2004-03-26 08:34:21 51°16.063 2°54.821 308.9 3.3 279 9.9
2004-03-26 08:34:27 51°16.064 2°54.812 308.3 3.3 276 9.9
2004-03-26 08:34:32 51°16.064 2°54.805 307.5 3.3 278 9.7
2004-03-26 08:34:37 51°16.065 2°54.798 307 3.3 276 9.8
2004-03-26 08:34:41 51°16.065 2°54.792 306.6 3.3 278 9.9
2004-03-26 08:34:47 51°16.066 2°54.783 306.4 3.3 276 9.9
2004-03-26 08:34:51 51°16.066 2°54.777 306 3.4 276 9.9
2004-03-26 08:34:57 51°16.067 2°54.768 305.8 3.4 277 9.8
2004-03-26 08:35:01 51°16.067 2°54.762 305.5 3.4 277 9.9
2004-03-26 08:35:07 51°16.068 2°54.754 305.4 3.4 278 9.9
2004-03-26 08:35:11 51°16.068 2°54.748 305.4 3.3 277 9.9
2004-03-26 08:35:17 51°16.069 2°54.739 305 3.4 277 9.9
2004-03-26 08:35:21 51°16.07 2°54.733 305.3 3.3 277 10
2004-03-26 08:35:27 51°16.07 2°54.724 305.4 3.3 277 10.1
2004-03-26 08:35:31 51°16.071 2°54.718 305.5 3.4 277 10
2004-03-26 08:35:37 51°16.071 2°54.709 305.5 3.4 277 10
2004-03-26 08:35:41 51°16.072 2°54.703 305.3 3.4 277 10
2004-03-26 08:35:47 51°16.073 2°54.695 305.5 3.4 277 10
2004-03-26 08:35:52 51°16.073 2°54.687 305.5 3.4 276 10
2004-03-26 08:35:56 51°16.074 2°54.681 305.6 3.3 278 10.1
2004-03-26 08:36:01 51°16.074 2°54.674 305.6 3.4 276 10
2004-03-26 08:36:07 51°16.075 2°54.665 305.8 3.4 278 10.1
2004-03-26 08:36:11 51°16.075 2°54.658 305.7 3.5 276 10.1
2004-03-26 08:36:17 51°16.076 2°54.649 306 3.4 278 10.1
2004-03-26 08:36:22 51°16.077 2°54.642 306.2 3.5 277 10.2
2004-03-26 08:36:27 51°16.077 2°54.635 306.4 3.4 277 10
2004-03-26 08:36:31 51°16.078 2°54.629 306.5 3.4 277 10.1
2004-03-26 08:36:37 51°16.078 2°54.62 306.8 3.4 277 10.2
2004-03-26 08:36:41 51°16.079 2°54.614 306.8 3.4 278 10.1
2004-03-26 08:36:47 51°16.08 2°54.605 307 3.5 276 10.2
2004-03-26 08:36:52 51°16.08 2°54.597 307 3.4 277 10.1
2004-03-26 08:36:57 51°16.081 2°54.589 307 3.4 277 10.2
2004-03-26 08:37:01 51°16.081 2°54.583 306.9 3.4 277 10.2
2004-03-26 08:37:07 51°16.082 2°54.574 306.8 3.4 277 10.1
2004-03-26 08:37:12 51°16.083 2°54.567 306.8 3.4 278 10.2
2004-03-26 08:37:17 51°16.083 2°54.559 306.9 3.4 277 10.2
2004-03-26 08:37:21 51°16.084 2°54.553 307 3.4 278 10.1
2004-03-26 08:37:27 51°16.085 2°54.544 307.1 3.5 277 10.2
2004-03-26 08:37:32 51°16.085 2°54.537 307.4 3.4 278 10.2
2004-03-26 08:37:37 51°16.086 2°54.529 307.7 3.4 278 10.2
2004-03-26 08:37:41 51°16.086 2°54.523 307.9 3.3 280 10.2
2004-03-26 08:37:45 51°16.087 2°54.517 308.3 3.5 279 10.3
2004-03-26 08:37:52 51°16.088 2°54.507 308.8 3.4 280 10.2
2004-03-26 08:37:56 51°16.089 2°54.501 309.2 3.4 278 10.3
2004-03-26 08:38:01 51°16.089 2°54.493 309.3 3.4 280 10.3
2004-03-26 08:38:07 51°16.09 2°54.485 309.7 3.4 279 10.2
2004-03-26 08:38:12 51°16.091 2°54.477 309.8 3.3 280 10.2
2004-03-26 08:38:17 51°16.092 2°54.47 310 3.3 280 10.3
2004-03-26 08:38:21 51°16.093 2°54.464 309.9 3.4 280 10.3
2004-03-26 08:38:27 51°16.094 2°54.455 310.1 3.3 281 10.2
2004-03-26 08:38:31 51°16.094 2°54.449 310.4 3.4 281 10.3
2004-03-26 08:38:37 51°16.095 2°54.441 310.6 3.3 281 10.3
2004-03-26 08:38:41 51°16.096 2°54.435 310.9 3.3 282 10.3
2004-03-26 08:38:47 51°16.097 2°54.426 310.7 3.3 281 10.4
2004-03-26 08:38:51 51°16.098 2°54.42 311.2 3.4 280 10.3
2004-03-26 08:38:57 51°16.099 2°54.412 311.4 3.3 283 10.3
2004-03-26 08:39:01 51°16.1 2°54.406 311.6 3.4 281 10.3
2004-03-26 08:39:07 51°16.101 2°54.397 311.6 3.4 280 10.3
2004-03-26 08:39:12 51°16.102 2°54.39 311.8 3.3 282 10.3
2004-03-26 08:39:17 51°16.102 2°54.383 311.7 3.3 280 10.4